sensor_id;sensor_type;location;lat;lon;timestamp;P1;durP1;ratioP1;P2;durP2;ratioP2
7883;SDS011;3987;51.458;7.238;2024-01-15T00:02:51;125.90;;;57.73;;
7883;SDS011;3987;51.458;7.238;2024-01-15T00:17:51;129.07;;;61.23;;
7883;SDS011;3987;51.458;7.238;2024-01-15T00:32:51;122.82;;;58.63;;
7883;SDS011;3987;51.458;7.238;2024-01-15T00:47:52;113.68;;;55.67;;
7883;SDS011;3987;51.458;7.238;2024-01-15T01:02:52;96.03;;;50.45;;
7883;SDS011;3987;51.458;7.238;2024-01-15T01:17:53;100.83;;;52.03;;
7883;SDS011;3987;51.458;7.238;2024-01-15T01:32:53;95.80;;;50.97;;
7883;SDS011;3987;51.458;7.238;2024-01-15T01:47:54;86.60;;;49.07;;
7883;SDS011;3987;51.458;7.238;2024-01-15T02:02:54;97.17;;;52.13;;
7883;SDS011;3987;51.458;7.238;2024-01-15T02:33:02;82.20;;;47.53;;
7883;SDS011;3987;51.458;7.238;2024-01-15T02:48:03;77.80;;;45.03;;
7883;SDS011;3987;51.458;7.238;2024-01-15T03:03:03;68.80;;;39.40;;
7883;SDS011;3987;51.458;7.238;2024-01-15T03:18:04;58.92;;;34.10;;
7883;SDS011;3987;51.458;7.238;2024-01-15T03:33:04;64.28;;;38.65;;
7883;SDS011;3987;51.458;7.238;2024-01-15T03:48:06;72.93;;;43.00;;
7883;SDS011;3987;51.458;7.238;2024-01-15T04:03:07;58.97;;;39.03;;
7883;SDS011;3987;51.458;7.238;2024-01-15T04:18:08;53.60;;;37.00;;
7883;SDS011;3987;51.458;7.238;2024-01-15T04:33:08;53.07;;;36.40;;
7883;SDS011;3987;51.458;7.238;2024-01-15T04:48:09;57.87;;;35.93;;
7883;SDS011;3987;51.458;7.238;2024-01-15T05:03:09;52.30;;;35.87;;
7883;SDS011;3987;51.458;7.238;2024-01-15T05:18:09;51.63;;;34.90;;
7883;SDS011;3987;51.458;7.238;2024-01-15T05:33:10;51.78;;;36.67;;
7883;SDS011;3987;51.458;7.238;2024-01-15T05:48:12;50.63;;;33.27;;
7883;SDS011;3987;51.458;7.238;2024-01-15T06:03:13;48.08;;;33.63;;
7883;SDS011;3987;51.458;7.238;2024-01-15T06:18:13;47.60;;;34.17;;
7883;SDS011;3987;51.458;7.238;2024-01-15T06:33:13;50.83;;;33.90;;
7883;SDS011;3987;51.458;7.238;2024-01-15T06:48:14;50.50;;;35.00;;
7883;SDS011;3987;51.458;7.238;2024-01-15T07:03:16;51.03;;;36.13;;
7883;SDS011;3987;51.458;7.238;2024-01-15T07:18:16;40.65;;;28.42;;
7883;SDS011;3987;51.458;7.238;2024-01-15T07:33:17;18.60;;;16.80;;
7883;SDS011;3987;51.458;7.238;2024-01-15T07:48:17;14.13;;;12.82;;
7883;SDS011;3987;51.458;7.238;2024-01-15T08:03:18;13.65;;;12.25;;
7883;SDS011;3987;51.458;7.238;2024-01-15T08:18:18;21.42;;;19.35;;
7883;SDS011;3987;51.458;7.238;2024-01-15T08:33:20;41.97;;;31.87;;
7883;SDS011;3987;51.458;7.238;2024-01-15T08:48:21;45.60;;;32.80;;
7883;SDS011;3987;51.458;7.238;2024-01-15T09:03:21;48.43;;;35.27;;
7883;SDS011;3987;51.458;7.238;2024-01-15T09:18:21;49.03;;;33.43;;
7883;SDS011;3987;51.458;7.238;2024-01-15T09:33:22;34.40;;;26.80;;
7883;SDS011;3987;51.458;7.238;2024-01-15T09:48:22;31.60;;;23.60;;
7883;SDS011;3987;51.458;7.238;2024-01-15T10:03:23;36.20;;;24.50;;
7883;SDS011;3987;51.458;7.238;2024-01-15T10:18:23;38.77;;;27.00;;
7883;SDS011;3987;51.458;7.238;2024-01-15T10:33:24;36.15;;;24.92;;
7883;SDS011;3987;51.458;7.238;2024-01-15T10:48:27;19.27;;;17.37;;
7883;SDS011;3987;51.458;7.238;2024-01-15T11:03:30;17.52;;;15.23;;
7883;SDS011;3987;51.458;7.238;2024-01-15T11:18:32;21.63;;;17.85;;
7883;SDS011;3987;51.458;7.238;2024-01-15T11:33:36;18.20;;;15.80;;
7883;SDS011;3987;51.458;7.238;2024-01-15T11:48:42;17.20;;;14.87;;
7883;SDS011;3987;51.458;7.238;2024-01-15T12:03:44;11.60;;;10.80;;
7883;SDS011;3987;51.458;7.238;2024-01-15T12:18:47;14.43;;;12.93;;
7883;SDS011;3987;51.458;7.238;2024-01-15T12:33:47;14.57;;;11.60;;
7883;SDS011;3987;51.458;7.238;2024-01-15T12:48:48;11.53;;;10.57;;
7883;SDS011;3987;51.458;7.238;2024-01-15T13:03:48;13.73;;;12.70;;
7883;SDS011;3987;51.458;7.238;2024-01-15T13:18:49;12.00;;;10.80;;
7883;SDS011;3987;51.458;7.238;2024-01-15T13:33:49;16.48;;;14.90;;
7883;SDS011;3987;51.458;7.238;2024-01-15T13:48:50;13.30;;;12.00;;
7883;SDS011;3987;51.458;7.238;2024-01-15T14:03:50;13.27;;;12.20;;
7883;SDS011;3987;51.458;7.238;2024-01-15T14:18:51;18.50;;;16.67;;
7883;SDS011;3987;51.458;7.238;2024-01-15T14:33:52;17.70;;;16.30;;
7883;SDS011;3987;51.458;7.238;2024-01-15T14:48:52;17.83;;;16.20;;
7883;SDS011;3987;51.458;7.238;2024-01-15T15:03:53;13.38;;;12.23;;
7883;SDS011;3987;51.458;7.238;2024-01-15T15:18:53;12.97;;;11.90;;
7883;SDS011;3987;51.458;7.238;2024-01-15T15:33:54;12.13;;;11.33;;
7883;SDS011;3987;51.458;7.238;2024-01-15T15:48:55;10.90;;;10.00;;
7883;SDS011;3987;51.458;7.238;2024-01-15T16:03:55;12.33;;;11.30;;
7883;SDS011;3987;51.458;7.238;2024-01-15T16:18:56;10.73;;;9.83;;
7883;SDS011;3987;51.458;7.238;2024-01-15T16:33:56;14.23;;;13.00;;
7883;SDS011;3987;51.458;7.238;2024-01-15T16:48:57;16.23;;;14.55;;
7883;SDS011;3987;51.458;7.238;2024-01-15T17:03:57;18.88;;;17.08;;
7883;SDS011;3987;51.458;7.238;2024-01-15T17:18:58;16.70;;;15.00;;
7883;SDS011;3987;51.458;7.238;2024-01-15T17:33:58;18.30;;;16.53;;
7883;SDS011;3987;51.458;7.238;2024-01-15T17:48:59;18.07;;;16.17;;
7883;SDS011;3987;51.458;7.238;2024-01-15T18:04:03;17.77;;;15.87;;
7883;SDS011;3987;51.458;7.238;2024-01-15T18:19:03;19.15;;;17.15;;
7883;SDS011;3987;51.458;7.238;2024-01-15T18:34:04;15.03;;;12.63;;
7883;SDS011;3987;51.458;7.238;2024-01-15T18:49:05;16.67;;;14.88;;
7883;SDS011;3987;51.458;7.238;2024-01-15T19:04:06;19.83;;;16.13;;
7883;SDS011;3987;51.458;7.238;2024-01-15T19:19:07;20.77;;;17.77;;
7883;SDS011;3987;51.458;7.238;2024-01-15T19:34:07;17.87;;;16.10;;
7883;SDS011;3987;51.458;7.238;2024-01-15T19:49:07;17.23;;;15.50;;
7883;SDS011;3987;51.458;7.238;2024-01-15T20:04:08;16.48;;;11.35;;
7883;SDS011;3987;51.458;7.238;2024-01-15T20:19:09;11.93;;;10.40;;
7883;SDS011;3987;51.458;7.238;2024-01-15T20:34:10;19.48;;;12.52;;
7883;SDS011;3987;51.458;7.238;2024-01-15T20:49:10;16.88;;;13.52;;
7883;SDS011;3987;51.458;7.238;2024-01-15T21:04:11;20.52;;;14.85;;
7883;SDS011;3987;51.458;7.238;2024-01-15T21:19:12;17.60;;;15.60;;
7883;SDS011;3987;51.458;7.238;2024-01-15T21:34:12;14.37;;;12.43;;
7883;SDS011;3987;51.458;7.238;2024-01-15T21:49:15;15.50;;;14.03;;
7883;SDS011;3987;51.458;7.238;2024-01-15T22:04:15;19.23;;;16.83;;
7883;SDS011;3987;51.458;7.238;2024-01-15T22:19:15;22.30;;;20.00;;
7883;SDS011;3987;51.458;7.238;2024-01-15T22:34:16;20.50;;;18.03;;
7883;SDS011;3987;51.458;7.238;2024-01-15T22:49:17;19.33;;;16.90;;
7883;SDS011;3987;51.458;7.238;2024-01-15T23:04:17;24.60;;;19.27;;
7883;SDS011;3987;51.458;7.238;2024-01-15T23:19:18;20.17;;;18.00;;
7883;SDS011;3987;51.458;7.238;2024-01-15T23:34:18;23.63;;;19.57;;
7883;SDS011;3987;51.458;7.238;2024-01-15T23:49:19;25.73;;;18.25;;
